createdAt,value
2018-06-23T00:00:39.416Z,92.54
2018-06-23T00:03:10.113Z,92.66
2018-06-23T00:05:39.569Z,92.42
2018-06-23T00:08:09.215Z,91.74
2018-06-23T00:10:38.651Z,92.38
2018-06-23T00:13:08.071Z,90.75
2018-06-23T00:15:37.525Z,91.42
2018-06-23T00:18:07.050Z,92.18
2018-06-23T00:20:36.427Z,92.02
2018-06-23T00:23:05.867Z,91.41
2018-06-23T00:25:40.263Z,91.18
2018-06-23T00:28:10.182Z,92.64
2018-06-23T00:30:39.640Z,92.38
2018-06-23T00:33:09.054Z,93.12
2018-06-23T00:35:38.443Z,92.57
2018-06-23T00:38:07.831Z,92.21
2018-06-23T00:40:37.286Z,92.59
2018-06-23T00:43:06.787Z,93.20
2018-06-23T00:45:36.224Z,92.97
2018-06-23T00:48:05.679Z,92.09
2018-06-23T00:50:35.128Z,92.74
2018-06-23T00:53:04.608Z,92.31
2018-06-23T00:55:34.089Z,92.42
2018-06-23T00:58:03.635Z,91.71
2018-06-23T01:00:33.231Z,91.50
2018-06-23T01:03:02.633Z,92.59
2018-06-23T01:05:32.094Z,93.17
2018-06-23T01:08:01.574Z,92.72
2018-06-23T01:10:31.042Z,92.23
2018-06-23T01:13:00.411Z,92.69
2018-06-23T01:15:29.879Z,92.87
2018-06-23T01:17:59.270Z,92.45
2018-06-23T01:20:28.772Z,93.07
2018-06-23T01:22:58.185Z,92.71
2018-06-23T01:25:27.648Z,92.99
2018-06-23T01:27:57.065Z,93.11
2018-06-23T01:30:26.533Z,92.80
2018-06-23T01:32:56.030Z,92.26
2018-06-23T01:35:25.415Z,93.48
2018-06-23T01:37:54.804Z,93.89
2018-06-23T01:40:24.204Z,93.92
2018-06-23T01:42:53.641Z,93.71
2018-06-23T01:45:23.052Z,92.54
2018-06-23T01:47:52.555Z,92.48
2018-06-23T01:50:21.926Z,92.69
2018-06-23T01:52:51.335Z,93.53
2018-06-23T01:55:20.736Z,94.06
2018-06-23T01:57:50.178Z,93.39
2018-06-23T02:00:19.648Z,93.65
2018-06-23T02:02:49.107Z,93.40
2018-06-23T02:05:18.544Z,93.36
2018-06-23T02:07:47.975Z,93.79
2018-06-23T02:10:17.440Z,94.16
2018-06-23T02:12:46.653Z,93.52
2018-06-23T02:15:16.039Z,94.06
2018-06-23T02:17:50.401Z,93.44
2018-06-23T02:22:30.306Z,93.20
2018-06-23T02:25:04.986Z,92.89
2018-06-23T02:27:39.526Z,93.55
2018-06-23T02:30:14.069Z,93.81
2018-06-23T02:32:45.216Z,93.60
2018-06-23T02:35:14.671Z,93.58
2018-06-23T02:37:44.083Z,93.39
2018-06-23T02:40:13.552Z,93.26
2018-06-23T02:42:42.916Z,93.29
2018-06-23T02:45:12.406Z,94.16
2018-06-23T02:47:43.359Z,93.96
2018-06-23T02:50:12.797Z,94.10
2018-06-23T02:52:42.197Z,94.27
2018-06-23T02:55:11.622Z,94.25
2018-06-23T02:57:40.771Z,94.79
2018-06-23T03:00:10.287Z,94.86
2018-06-23T03:02:39.733Z,94.97
2018-06-23T03:05:09.747Z,93.75
2018-06-23T03:07:38.949Z,94.05
2018-06-23T03:10:08.371Z,94.09
2018-06-23T03:12:37.772Z,94.45
2018-06-23T03:15:07.237Z,94.68
2018-06-23T03:17:36.399Z,94.54
2018-06-23T03:20:05.830Z,93.88
2018-06-23T03:22:35.293Z,94.44
2018-06-23T03:25:04.752Z,95.02
2018-06-23T03:27:34.164Z,95.16
2018-06-23T03:30:03.741Z,95.02
2018-06-23T03:32:33.207Z,95.32
2018-06-23T03:35:02.631Z,95.16
2018-06-23T03:37:32.050Z,94.23
2018-06-23T03:40:01.467Z,94.45
2018-06-23T03:42:30.912Z,94.20
2018-06-23T03:45:00.356Z,94.67
2018-06-23T03:47:29.761Z,94.47
2018-06-23T03:49:59.285Z,94.23
2018-06-23T03:52:28.706Z,94.04
2018-06-23T03:54:58.136Z,94.23
2018-06-23T03:57:27.501Z,94.26
2018-06-23T03:59:56.902Z,94.43
2018-06-23T04:02:26.306Z,94.52
2018-06-23T04:04:55.716Z,94.14
2018-06-23T04:07:25.234Z,95.07
2018-06-23T04:09:54.608Z,95.06
2018-06-23T04:12:24.550Z,94.86
2018-06-23T04:14:53.994Z,94.82
2018-06-23T04:17:23.416Z,95.32
2018-06-23T04:19:52.853Z,95.78
2018-06-23T04:22:22.288Z,95.09
2018-06-23T04:24:51.725Z,95.28
2018-06-23T04:27:21.150Z,95.49
2018-06-23T04:29:50.908Z,95.55
2018-06-23T04:32:20.354Z,95.94
2018-06-23T04:34:49.771Z,95.41
2018-06-23T04:37:19.219Z,95.61
2018-06-23T04:39:48.629Z,94.93
2018-06-23T04:42:18.083Z,94.75
2018-06-23T04:44:47.480Z,94.12
2018-06-23T04:47:16.923Z,93.76
2018-06-23T04:49:46.852Z,93.49
2018-06-23T04:52:16.249Z,92.56
2018-06-23T04:54:45.646Z,92.29
2018-06-23T04:57:15.060Z,92.38
2018-06-23T04:59:44.454Z,92.41
2018-06-23T05:02:13.974Z,92.55
2018-06-23T05:04:43.409Z,93.40
2018-06-23T05:07:12.862Z,92.90
2018-06-23T05:09:42.295Z,92.51
2018-06-23T05:12:11.796Z,92.11
2018-06-23T05:14:41.163Z,91.93
2018-06-23T05:17:10.633Z,91.75
2018-06-23T05:19:40.017Z,91.97
2018-06-23T05:22:09.440Z,91.86
2018-06-23T05:24:38.810Z,91.57
2018-06-23T05:27:08.203Z,91.36
2018-06-23T05:29:37.616Z,90.96
2018-06-23T05:32:07.241Z,92.23
2018-06-23T05:34:36.739Z,91.83
2018-06-23T05:37:06.171Z,91.63
2018-06-23T05:39:35.598Z,91.10
2018-06-23T05:42:05.043Z,91.36
2018-06-23T05:44:34.473Z,92.05
2018-06-23T05:47:03.896Z,92.91
2018-06-23T05:49:33.308Z,92.95
2018-06-23T05:52:02.689Z,92.83
2018-06-23T05:54:32.145Z,92.83
2018-06-23T05:57:01.582Z,91.74
2018-06-23T05:59:30.922Z,91.22
2018-06-23T06:02:00.368Z,91.54
2018-06-23T06:04:29.753Z,88.54
2018-06-23T06:06:59.257Z,86.42
2018-06-23T06:09:28.649Z,86.54
2018-06-23T06:11:58.083Z,88.53
2018-06-23T06:14:27.955Z,89.79
2018-06-23T06:17:26.091Z,87.78
2018-06-23T06:19:56.605Z,84.06
2018-06-23T06:22:27.236Z,84.93
2018-06-23T06:24:56.907Z,83.10
2018-06-23T06:27:26.438Z,80.94
2018-06-23T06:29:56.989Z,82.07
2018-06-23T06:32:26.906Z,80.74
2018-06-23T06:34:56.404Z,78.82
2018-06-23T06:37:25.889Z,78.10
2018-06-23T06:39:55.257Z,78.39
2018-06-23T06:42:24.748Z,77.08
2018-06-23T06:44:54.214Z,76.95
2018-06-23T06:47:23.681Z,77.83
2018-06-23T06:49:52.842Z,78.60
2018-06-23T06:52:22.294Z,78.48
2018-06-23T06:54:51.396Z,77.57
2018-06-23T06:57:21.894Z,77.79
2018-06-23T06:59:51.378Z,78.88
2018-06-23T07:02:20.785Z,77.46
2018-06-23T07:04:50.416Z,77.68
2018-06-23T07:07:19.884Z,75.27
2018-06-23T07:09:49.303Z,74.43
2018-06-23T07:12:18.764Z,73.24
2018-06-23T07:14:48.887Z,71.85
2018-06-23T07:17:18.308Z,72.04
2018-06-23T07:19:47.792Z,70.87
2018-06-23T07:22:17.227Z,71.84
2018-06-23T07:24:46.701Z,70.83
2018-06-23T07:27:16.155Z,69.24
2018-06-23T07:29:45.579Z,69.34
2018-06-23T07:32:14.970Z,69.93
2018-06-23T07:34:44.519Z,68.69
2018-06-23T07:37:13.938Z,68.86
2018-06-23T07:39:43.367Z,69.17
2018-06-23T07:42:12.768Z,69.09
2018-06-23T07:44:42.215Z,70.27
2018-06-23T07:47:11.671Z,68.69
2018-06-23T07:49:41.115Z,69.16
2018-06-23T07:52:10.537Z,69.02
2018-06-23T07:54:39.961Z,69.26
2018-06-23T07:57:09.410Z,69.42
2018-06-23T07:59:38.830Z,69.07
2018-06-23T08:02:08.308Z,68.42
2018-06-23T08:04:37.734Z,68.18
2018-06-23T08:07:07.193Z,68.28
2018-06-23T08:09:36.595Z,68.25
2018-06-23T08:12:06.130Z,68.62
2018-06-23T08:14:35.625Z,67.26
2018-06-23T08:17:05.143Z,67.63
2018-06-23T08:19:34.532Z,67.49
2018-06-23T08:22:03.946Z,66.23
2018-06-23T08:24:33.327Z,66.01
2018-06-23T08:27:02.756Z,65.67
2018-06-23T08:29:32.267Z,65.96
2018-06-23T08:32:01.675Z,66.08
2018-06-23T08:34:31.123Z,65.48
2018-06-23T08:37:00.548Z,65.13
2018-06-23T08:39:30.078Z,65.59
2018-06-23T08:41:59.599Z,66.47
2018-06-23T08:44:29.008Z,64.39
2018-06-23T08:46:58.448Z,61.60
2018-06-23T08:49:27.926Z,61.75
2018-06-23T08:51:57.347Z,63.70
2018-06-23T08:54:27.759Z,62.47
2018-06-23T08:56:57.297Z,62.42
2018-06-23T08:59:26.705Z,63.25
2018-06-23T09:01:56.690Z,62.77
2018-06-23T09:04:26.306Z,60.81
2018-06-23T09:06:55.800Z,60.96
2018-06-23T09:09:25.566Z,61.45
2018-06-23T09:11:54.986Z,62.22
2018-06-23T09:14:24.458Z,63.37
2018-06-23T09:16:53.977Z,61.61
2018-06-23T09:19:23.413Z,61.82
2018-06-23T09:21:52.866Z,61.53
2018-06-23T09:24:22.278Z,60.85
2018-06-23T09:26:51.407Z,59.58
2018-06-23T09:29:20.853Z,60.02
2018-06-23T09:31:50.308Z,60.31
2018-06-23T09:34:19.804Z,59.55
2018-06-23T09:36:48.955Z,58.91
2018-06-23T09:39:18.386Z,58.77
2018-06-23T09:41:47.873Z,58.86
2018-06-23T09:44:17.365Z,59.39
2018-06-23T09:46:46.819Z,59.64
2018-06-23T09:49:16.250Z,59.95
2018-06-23T09:51:45.702Z,59.93
2018-06-23T09:54:15.097Z,59.14
2018-06-23T09:56:44.577Z,58.11
2018-06-23T09:59:14.044Z,58.47
2018-06-23T10:01:43.171Z,58.30
2018-06-23T10:04:12.612Z,58.61
2018-06-23T10:06:42.045Z,59.53
2018-06-23T10:09:11.739Z,57.70
2018-06-23T10:11:41.185Z,57.49
2018-06-23T10:14:10.612Z,57.79
2018-06-23T10:16:40.060Z,57.23
2018-06-23T10:19:09.531Z,56.97
2018-06-23T10:21:38.962Z,56.60
2018-06-23T10:24:08.371Z,56.45
2018-06-23T10:26:37.744Z,57.76
2018-06-23T10:29:07.224Z,57.96
2018-06-23T10:31:36.677Z,58.44
2018-06-23T10:34:06.680Z,58.60
2018-06-23T10:36:36.130Z,60.00
2018-06-23T10:39:09.388Z,57.81
2018-06-23T10:41:39.424Z,57.69
2018-06-23T10:44:08.931Z,59.08
2018-06-23T10:46:38.351Z,60.47
2018-06-23T10:49:07.795Z,58.08
2018-06-23T10:51:37.449Z,57.89
2018-06-23T10:54:07.199Z,60.78
2018-06-23T10:56:36.604Z,58.61
2018-06-23T10:59:06.121Z,58.69
2018-06-23T11:01:35.580Z,58.89
2018-06-23T11:04:05.037Z,58.81
2018-06-23T11:06:34.526Z,58.58
2018-06-23T11:09:04.715Z,58.41
2018-06-23T11:11:35.069Z,58.88
2018-06-23T11:14:04.545Z,58.88
2018-06-23T11:16:33.980Z,59.11
2018-06-23T11:19:03.961Z,59.64
2018-06-23T11:21:33.592Z,59.13
2018-06-23T11:24:03.016Z,59.75
2018-06-23T11:26:32.399Z,60.34
2018-06-23T11:29:01.848Z,58.24
2018-06-23T11:31:31.246Z,57.92
2018-06-23T11:34:00.674Z,59.48
2018-06-23T11:36:30.091Z,58.01
2018-06-23T11:38:59.498Z,58.01
2018-06-23T11:41:28.935Z,58.04
2018-06-23T11:43:58.130Z,56.51
2018-06-23T11:46:27.649Z,57.66
2018-06-23T11:48:57.104Z,55.33
2018-06-23T11:51:26.569Z,56.45
2018-06-23T11:53:55.991Z,56.04
2018-06-23T11:56:25.396Z,56.90
2018-06-23T11:58:54.821Z,56.17
2018-06-23T12:01:24.259Z,57.58
2018-06-23T12:03:53.677Z,56.93
2018-06-23T12:06:24.994Z,55.92
2018-06-23T12:08:55.751Z,56.69
2018-06-23T12:11:26.129Z,56.26
2018-06-23T12:13:55.565Z,55.78
2018-06-23T12:16:25.033Z,57.06
2018-06-23T12:18:54.525Z,57.69
2018-06-23T12:21:23.967Z,58.57
2018-06-23T12:23:53.553Z,56.70
2018-06-23T12:26:22.980Z,56.52
2018-06-23T12:28:52.403Z,57.35
2018-06-23T12:31:21.852Z,57.66
2018-06-23T12:33:51.287Z,58.44
2018-06-23T12:36:20.692Z,56.15
2018-06-23T12:38:50.148Z,56.74
2018-06-23T12:41:19.606Z,57.35
2018-06-23T12:43:49.080Z,57.59
2018-06-23T12:46:18.550Z,55.62
2018-06-23T12:48:48.001Z,55.08
2018-06-23T12:51:17.440Z,56.22
2018-06-23T12:53:46.942Z,57.00
2018-06-23T12:56:16.426Z,56.30
2018-06-23T12:58:45.836Z,57.56
2018-06-23T13:01:15.312Z,56.43
2018-06-23T13:03:44.929Z,58.00
2018-06-23T13:06:14.353Z,57.94
2018-06-23T13:08:44.433Z,56.55
2018-06-23T13:11:13.964Z,56.40
2018-06-23T13:13:43.334Z,58.23
2018-06-23T13:16:12.836Z,58.44
2018-06-23T13:18:42.807Z,55.33
2018-06-23T13:21:12.320Z,57.81
2018-06-23T13:23:41.764Z,56.29
2018-06-23T13:26:11.222Z,57.25
2018-06-23T13:28:40.620Z,56.80
2018-06-23T13:31:10.059Z,58.46
2018-06-23T13:33:39.516Z,58.86
2018-06-23T13:36:08.628Z,58.74
2018-06-23T13:38:38.072Z,59.17
2018-06-23T13:41:07.673Z,57.90
2018-06-23T13:43:37.069Z,56.80
2018-06-23T13:46:06.622Z,58.15
2018-06-23T13:48:35.766Z,57.78
2018-06-23T13:51:05.384Z,58.05
2018-06-23T13:53:34.782Z,57.48
2018-06-23T13:56:04.347Z,57.07
2018-06-23T13:58:33.860Z,57.47
2018-06-23T14:01:03.397Z,58.62
2018-06-23T14:03:32.821Z,58.62
2018-06-23T14:06:02.209Z,58.95
2018-06-23T14:08:31.667Z,58.90
2018-06-23T14:11:01.068Z,58.25
2018-06-23T14:13:30.553Z,58.11
2018-06-23T14:16:00.047Z,57.85
2018-06-23T14:18:29.691Z,56.59
2018-06-23T14:20:59.216Z,57.37
2018-06-23T14:23:28.835Z,57.44
2018-06-23T14:25:58.269Z,57.81
2018-06-23T14:28:27.683Z,58.87
2018-06-23T14:30:57.155Z,60.43
2018-06-23T14:33:26.658Z,59.36
2018-06-23T14:35:56.065Z,59.43
2018-06-23T14:38:25.496Z,59.98
2018-06-23T14:40:54.908Z,61.02
2018-06-23T14:43:24.289Z,61.95
2018-06-23T14:45:53.871Z,61.63
2018-06-23T14:48:23.023Z,61.95
2018-06-23T14:50:52.460Z,63.33
2018-06-23T14:53:21.606Z,63.29
2018-06-23T14:55:51.086Z,60.83
2018-06-23T14:58:20.531Z,60.56
2018-06-23T15:00:49.982Z,61.59
2018-06-23T15:03:19.124Z,61.34
2018-06-23T15:05:48.569Z,60.42
2018-06-23T15:08:35.345Z,61.39
2018-06-23T15:11:21.585Z,60.86
2018-06-23T15:13:50.702Z,59.74
2018-06-23T15:16:20.118Z,60.31
2018-06-23T15:18:49.490Z,60.78
2018-06-23T15:21:18.635Z,60.58
2018-06-23T15:23:48.062Z,61.15
2018-06-23T15:26:17.556Z,61.39
2018-06-23T15:28:46.946Z,62.62
2018-06-23T15:31:16.399Z,62.02
2018-06-23T15:33:45.860Z,61.54
2018-06-23T15:36:15.335Z,62.45
2018-06-23T15:38:44.766Z,60.06
2018-06-23T15:41:14.166Z,60.71
2018-06-23T15:43:43.583Z,61.06
2018-06-23T15:46:12.998Z,61.05
2018-06-23T15:48:42.424Z,61.65
2018-06-23T15:51:12.015Z,61.87
2018-06-23T15:53:41.445Z,62.78
2018-06-23T15:56:10.912Z,62.54
2018-06-23T15:58:40.352Z,61.32
2018-06-23T16:01:09.834Z,61.17
2018-06-23T16:03:39.285Z,62.51
2018-06-23T16:06:08.666Z,64.86
2018-06-23T16:08:38.215Z,62.52
2018-06-23T16:11:07.731Z,62.58
2018-06-23T16:13:37.308Z,63.63
2018-06-23T16:16:06.754Z,62.53
2018-06-23T16:18:36.157Z,62.53
2018-06-23T16:21:05.680Z,62.88
2018-06-23T16:23:35.128Z,62.00
2018-06-23T16:26:04.642Z,62.15
2018-06-23T16:28:33.852Z,62.53
2018-06-23T16:31:03.234Z,62.80
2018-06-23T16:33:32.722Z,64.71
2018-06-23T16:36:02.200Z,64.12
2018-06-23T16:38:31.657Z,63.35
2018-06-23T16:41:01.128Z,63.62
2018-06-23T16:43:30.580Z,62.27
2018-06-23T16:46:00.068Z,63.31
2018-06-23T16:48:29.496Z,62.98
2018-06-23T16:50:58.987Z,63.10
2018-06-23T16:53:28.410Z,64.32
2018-06-23T16:55:57.841Z,64.03
2018-06-23T16:58:27.306Z,65.07
2018-06-23T17:00:56.788Z,64.59
2018-06-23T17:03:26.317Z,66.23
2018-06-23T17:05:55.710Z,64.92
2018-06-23T17:08:25.163Z,64.73
2018-06-23T17:10:54.556Z,64.62
2018-06-23T17:13:24.016Z,65.00
2018-06-23T17:15:53.416Z,65.04
2018-06-23T17:18:22.835Z,64.63
2018-06-23T17:20:52.375Z,65.10
2018-06-23T17:23:21.917Z,65.78
2018-06-23T17:25:52.334Z,64.86
2018-06-23T17:28:21.820Z,64.58
2018-06-23T17:30:51.218Z,65.05
2018-06-23T17:33:20.655Z,65.45
2018-06-23T17:35:50.867Z,65.51
2018-06-23T17:38:20.313Z,65.65
2018-06-23T17:40:49.784Z,64.49
2018-06-23T17:43:19.246Z,65.80
2018-06-23T17:45:48.680Z,65.55
2018-06-23T17:48:18.161Z,65.27
2018-06-23T17:50:47.521Z,64.96
2018-06-23T17:53:16.980Z,64.64
2018-06-23T17:55:46.437Z,66.33
2018-06-23T17:58:15.889Z,65.43
2018-06-23T18:00:45.402Z,66.35
2018-06-23T18:03:14.945Z,66.83
2018-06-23T18:05:44.373Z,67.27
2018-06-23T18:08:13.856Z,66.44
2018-06-23T18:10:43.303Z,66.86
2018-06-23T18:13:12.505Z,67.03
2018-06-23T18:15:41.929Z,66.99
2018-06-23T18:18:11.418Z,66.96
2018-06-23T18:20:40.824Z,68.13
2018-06-23T18:23:09.984Z,68.68
2018-06-23T18:25:39.514Z,67.76
2018-06-23T18:28:09.025Z,67.45
2018-06-23T18:30:38.155Z,67.15
2018-06-23T18:33:07.759Z,69.00
2018-06-23T18:35:37.186Z,70.70
2018-06-23T18:38:07.148Z,71.23
2018-06-23T18:40:36.566Z,71.01
2018-06-23T18:43:06.060Z,71.59
2018-06-23T18:45:35.955Z,72.98
2018-06-23T18:48:05.495Z,73.04
2018-06-23T18:50:34.918Z,72.93
2018-06-23T18:53:04.540Z,73.60
2018-06-23T18:55:34.011Z,72.64
2018-06-23T18:58:03.489Z,73.85
2018-06-23T19:00:32.973Z,73.72
2018-06-23T19:03:02.423Z,73.87
2018-06-23T19:05:31.831Z,74.92
2018-06-23T19:08:01.291Z,75.54
2018-06-23T19:10:30.763Z,75.95
2018-06-23T19:13:00.176Z,77.27
2018-06-23T19:15:29.661Z,76.51
2018-06-23T19:17:59.049Z,76.65
2018-06-23T19:20:28.227Z,77.04
2018-06-23T19:22:57.639Z,76.65
2018-06-23T19:25:27.512Z,77.49
2018-06-23T19:27:56.996Z,78.23
2018-06-23T19:30:26.449Z,78.40
2018-06-23T19:32:55.916Z,77.79
2018-06-23T19:35:25.410Z,79.41
2018-06-23T19:37:54.532Z,79.34
2018-06-23T19:40:24.109Z,79.78
2018-06-23T19:42:53.628Z,79.90
2018-06-23T19:45:23.222Z,79.57
2018-06-23T19:47:52.398Z,80.36
2018-06-23T19:50:21.835Z,80.80
2018-06-23T19:52:51.255Z,81.26
2018-06-23T19:55:20.724Z,80.92
2018-06-23T19:57:50.231Z,81.56
2018-06-23T20:00:19.712Z,82.12
2018-06-23T20:02:49.179Z,82.22
2018-06-23T20:05:18.690Z,82.41
2018-06-23T20:07:48.065Z,82.08
2018-06-23T20:12:08.270Z,82.73
2018-06-23T20:14:37.766Z,83.27
2018-06-23T20:17:07.320Z,83.87
2018-06-23T20:19:36.682Z,83.81
2018-06-23T20:22:06.300Z,83.66
2018-06-23T20:24:35.725Z,84.46
2018-06-23T20:27:05.413Z,84.37
2018-06-23T20:29:34.649Z,84.09
2018-06-23T20:32:04.099Z,84.41
2018-06-23T20:34:33.498Z,85.19
2018-06-23T20:37:02.923Z,84.78
2018-06-23T20:39:32.061Z,84.70
2018-06-23T20:42:01.533Z,84.39
2018-06-23T20:44:31.096Z,84.72
2018-06-23T20:47:00.774Z,84.63
2018-06-23T20:49:30.193Z,84.32
2018-06-23T20:51:59.626Z,84.39
2018-06-23T20:54:29.557Z,84.84
2018-06-23T20:56:59.016Z,84.96
2018-06-23T20:59:28.461Z,86.30
2018-06-23T21:01:57.866Z,86.21
2018-06-23T21:04:27.282Z,85.81
2018-06-23T21:06:56.737Z,87.04
2018-06-23T21:09:26.225Z,86.95
2018-06-23T21:11:55.660Z,86.69
2018-06-23T21:14:25.126Z,87.34
2018-06-23T21:16:54.628Z,86.12
2018-06-23T21:19:24.151Z,85.96
2018-06-23T21:21:53.542Z,86.55
2018-06-23T21:24:23.102Z,86.81
2018-06-23T21:26:52.591Z,86.34
2018-06-23T21:29:22.051Z,86.59
2018-06-23T21:31:51.528Z,86.57
2018-06-23T21:34:21.996Z,85.83
2018-06-23T21:36:51.483Z,86.69
2018-06-23T21:39:20.881Z,86.60
2018-06-23T21:41:50.388Z,86.98
2018-06-23T21:44:19.919Z,86.42
2018-06-23T21:46:49.384Z,86.45
2018-06-23T21:49:18.846Z,87.03
2018-06-23T21:51:48.279Z,87.52
2018-06-23T21:54:17.717Z,87.15
2018-06-23T21:56:47.162Z,88.39
2018-06-23T21:59:16.551Z,88.71
2018-06-23T22:01:46.098Z,88.78
2018-06-23T22:04:15.576Z,88.47
2018-06-23T22:06:44.932Z,88.08
2018-06-23T22:09:14.455Z,88.64
2018-06-23T22:11:43.960Z,88.76
2018-06-23T22:14:13.402Z,88.50
2018-06-23T22:16:42.829Z,89.72
2018-06-23T22:19:12.286Z,88.95
2018-06-23T22:21:41.775Z,89.46
2018-06-23T22:24:11.226Z,89.86
2018-06-23T22:26:40.727Z,89.90
2018-06-23T22:29:10.133Z,90.15
2018-06-23T22:31:39.544Z,90.92
2018-06-23T22:34:09.000Z,90.27
2018-06-23T22:36:38.442Z,90.30
2018-06-23T22:39:10.676Z,89.97
2018-06-23T22:41:40.143Z,90.14
2018-06-23T22:44:09.858Z,90.59
2018-06-23T22:46:39.290Z,90.77
2018-06-23T22:49:08.710Z,91.71
2018-06-23T22:51:38.208Z,91.89
2018-06-23T22:54:07.691Z,91.61
2018-06-23T22:56:37.111Z,90.98
2018-06-23T22:59:06.772Z,90.96
2018-06-23T23:01:36.221Z,91.14
2018-06-23T23:04:05.657Z,91.22
2018-06-23T23:06:35.098Z,91.80
2018-06-23T23:09:06.441Z,92.13
2018-06-23T23:11:35.873Z,92.64
2018-06-23T23:14:06.245Z,92.84
2018-06-23T23:16:36.023Z,92.36
2018-06-23T23:19:05.520Z,92.06
2018-06-23T23:21:34.999Z,92.53
2018-06-23T23:24:04.431Z,93.12
2018-06-23T23:26:33.836Z,92.80
2018-06-23T23:29:03.245Z,93.16
2018-06-23T23:31:32.592Z,91.83
2018-06-23T23:34:02.037Z,92.63
2018-06-23T23:36:31.437Z,92.99
2018-06-23T23:39:00.894Z,92.92
2018-06-23T23:41:30.309Z,92.08
2018-06-23T23:43:59.754Z,91.96
2018-06-23T23:46:29.234Z,92.36
2018-06-23T23:48:58.729Z,92.61
2018-06-23T23:51:28.205Z,92.62
2018-06-23T23:53:57.829Z,93.24
2018-06-23T23:56:27.295Z,93.16
2018-06-23T23:58:56.894Z,93.15
